sensor_id;sensor_type;location;lat;lon;timestamp;P1;durP1;ratioP1;P2;durP2;ratioP2
3278;SDS011;1651;50.940;6.888;2022-11-21T00:00:48;10.63;;;4.15;;
3278;SDS011;1651;50.940;6.888;2022-11-21T00:03:14;16.75;;;5.60;;
3278;SDS011;1651;50.940;6.888;2022-11-21T00:05:42;14.43;;;3.90;;
3278;SDS011;1651;50.940;6.888;2022-11-21T00:08:09;9.45;;;4.03;;
3278;SDS011;1651;50.940;6.888;2022-11-21T00:10:36;11.38;;;4.00;;
3278;SDS011;1651;50.940;6.888;2022-11-21T00:13:05;8.15;;;5.18;;
3278;SDS011;1651;50.940;6.888;2022-11-21T00:15:32;13.05;;;4.95;;
3278;SDS011;1651;50.940;6.888;2022-11-21T00:18:00;9.73;;;4.25;;
3278;SDS011;1651;50.940;6.888;2022-11-21T00:20:26;12.90;;;4.00;;
3278;SDS011;1651;50.940;6.888;2022-11-21T00:22:52;18.90;;;4.87;;
3278;SDS011;1651;50.940;6.888;2022-11-21T00:25:18;14.07;;;4.03;;
3278;SDS011;1651;50.940;6.888;2022-11-21T00:27:44;26.23;;;6.17;;
3278;SDS011;1651;50.940;6.888;2022-11-21T00:30:10;9.03;;;4.27;;
3278;SDS011;1651;50.940;6.888;2022-11-21T00:32:36;16.33;;;4.57;;
3278;SDS011;1651;50.940;6.888;2022-11-21T00:35:03;10.35;;;4.00;;
3278;SDS011;1651;50.940;6.888;2022-11-21T00:37:30;21.88;;;5.25;;
3278;SDS011;1651;50.940;6.888;2022-11-21T00:39:56;8.90;;;4.22;;
3278;SDS011;1651;50.940;6.888;2022-11-21T00:42:22;10.30;;;5.03;;
3278;SDS011;1651;50.940;6.888;2022-11-21T00:44:48;11.53;;;4.10;;
3278;SDS011;1651;50.940;6.888;2022-11-21T00:47:14;16.00;;;5.30;;
3278;SDS011;1651;50.940;6.888;2022-11-21T00:49:40;8.53;;;4.03;;
3278;SDS011;1651;50.940;6.888;2022-11-21T00:52:06;15.50;;;5.30;;
3278;SDS011;1651;50.940;6.888;2022-11-21T00:54:32;22.40;;;5.07;;
3278;SDS011;1651;50.940;6.888;2022-11-21T00:56:58;14.03;;;4.23;;
3278;SDS011;1651;50.940;6.888;2022-11-21T00:59:24;22.93;;;5.67;;
3278;SDS011;1651;50.940;6.888;2022-11-21T01:01:50;13.87;;;4.70;;
3278;SDS011;1651;50.940;6.888;2022-11-21T01:04:16;12.43;;;4.00;;
3278;SDS011;1651;50.940;6.888;2022-11-21T01:06:42;15.17;;;3.90;;
3278;SDS011;1651;50.940;6.888;2022-11-21T01:09:08;12.70;;;5.13;;
3278;SDS011;1651;50.940;6.888;2022-11-21T01:11:34;12.10;;;4.10;;
3278;SDS011;1651;50.940;6.888;2022-11-21T01:14:00;12.47;;;4.43;;
3278;SDS011;1651;50.940;6.888;2022-11-21T01:16:26;8.95;;;4.43;;
3278;SDS011;1651;50.940;6.888;2022-11-21T01:18:52;9.43;;;3.60;;
3278;SDS011;1651;50.940;6.888;2022-11-21T01:23:45;11.63;;;4.00;;
3278;SDS011;1651;50.940;6.888;2022-11-21T01:26:12;11.02;;;4.55;;
3278;SDS011;1651;50.940;6.888;2022-11-21T01:28:38;11.23;;;3.15;;
3278;SDS011;1651;50.940;6.888;2022-11-21T01:31:05;14.50;;;5.18;;
3278;SDS011;1651;50.940;6.888;2022-11-21T01:33:31;11.10;;;3.58;;
3278;SDS011;1651;50.940;6.888;2022-11-21T01:36:04;16.13;;;4.32;;
3278;SDS011;1651;50.940;6.888;2022-11-21T01:38:31;9.05;;;3.58;;
3278;SDS011;1651;50.940;6.888;2022-11-21T01:40:57;7.40;;;3.50;;
3278;SDS011;1651;50.940;6.888;2022-11-21T01:43:23;9.83;;;3.83;;
3278;SDS011;1651;50.940;6.888;2022-11-21T01:48:22;11.65;;;4.50;;
3278;SDS011;1651;50.940;6.888;2022-11-21T01:50:50;15.15;;;4.10;;
3278;SDS011;1651;50.940;6.888;2022-11-21T01:53:17;9.75;;;3.45;;
3278;SDS011;1651;50.940;6.888;2022-11-21T01:55:43;6.07;;;3.40;;
3278;SDS011;1651;50.940;6.888;2022-11-21T01:58:10;15.00;;;4.25;;
3278;SDS011;1651;50.940;6.888;2022-11-21T02:00:37;11.07;;;3.50;;
3278;SDS011;1651;50.940;6.888;2022-11-21T02:03:06;12.85;;;3.40;;
3278;SDS011;1651;50.940;6.888;2022-11-21T02:05:35;9.75;;;3.92;;
3278;SDS011;1651;50.940;6.888;2022-11-21T02:08:02;11.75;;;3.35;;
3278;SDS011;1651;50.940;6.888;2022-11-21T02:10:31;9.82;;;3.92;;
3278;SDS011;1651;50.940;6.888;2022-11-21T02:12:57;18.20;;;3.42;;
3278;SDS011;1651;50.940;6.888;2022-11-21T02:15:25;8.63;;;3.45;;
3278;SDS011;1651;50.940;6.888;2022-11-21T02:17:52;10.48;;;3.53;;
3278;SDS011;1651;50.940;6.888;2022-11-21T02:20:19;9.77;;;3.60;;
3278;SDS011;1651;50.940;6.888;2022-11-21T02:25:42;8.40;;;2.78;;
3278;SDS011;1651;50.940;6.888;2022-11-21T02:28:10;6.85;;;2.90;;
3278;SDS011;1651;50.940;6.888;2022-11-21T02:30:38;10.43;;;4.15;;
3278;SDS011;1651;50.940;6.888;2022-11-21T02:33:05;13.98;;;4.38;;
3278;SDS011;1651;50.940;6.888;2022-11-21T02:35:31;5.47;;;2.83;;
3278;SDS011;1651;50.940;6.888;2022-11-21T02:38:02;6.25;;;2.90;;
3278;SDS011;1651;50.940;6.888;2022-11-21T02:40:33;4.15;;;2.20;;
3278;SDS011;1651;50.940;6.888;2022-11-21T02:45:38;5.63;;;3.17;;
3278;SDS011;1651;50.940;6.888;2022-11-21T02:48:05;3.90;;;2.50;;
3278;SDS011;1651;50.940;6.888;2022-11-21T02:50:32;5.45;;;2.50;;
3278;SDS011;1651;50.940;6.888;2022-11-21T02:52:58;5.90;;;3.10;;
3278;SDS011;1651;50.940;6.888;2022-11-21T02:55:24;5.45;;;2.60;;
3278;SDS011;1651;50.940;6.888;2022-11-21T02:57:51;6.30;;;2.38;;
3278;SDS011;1651;50.940;6.888;2022-11-21T03:00:17;11.63;;;3.40;;
3278;SDS011;1651;50.940;6.888;2022-11-21T03:02:43;9.25;;;3.05;;
3278;SDS011;1651;50.940;6.888;2022-11-21T03:05:09;10.60;;;2.77;;
3278;SDS011;1651;50.940;6.888;2022-11-21T03:07:36;8.63;;;2.40;;
3278;SDS011;1651;50.940;6.888;2022-11-21T03:10:02;8.90;;;2.50;;
3278;SDS011;1651;50.940;6.888;2022-11-21T03:12:28;5.60;;;3.20;;
3278;SDS011;1651;50.940;6.888;2022-11-21T03:14:54;14.30;;;3.17;;
3278;SDS011;1651;50.940;6.888;2022-11-21T03:17:20;5.10;;;2.88;;
3278;SDS011;1651;50.940;6.888;2022-11-21T03:19:46;4.65;;;3.03;;
3278;SDS011;1651;50.940;6.888;2022-11-21T03:22:12;6.40;;;2.73;;
3278;SDS011;1651;50.940;6.888;2022-11-21T03:24:38;6.95;;;2.50;;
3278;SDS011;1651;50.940;6.888;2022-11-21T03:27:04;10.13;;;2.70;;
3278;SDS011;1651;50.940;6.888;2022-11-21T03:29:30;4.45;;;3.15;;
3278;SDS011;1651;50.940;6.888;2022-11-21T03:31:56;5.28;;;2.95;;
3278;SDS011;1651;50.940;6.888;2022-11-21T03:34:22;8.87;;;3.63;;
3278;SDS011;1651;50.940;6.888;2022-11-21T03:36:49;10.60;;;2.75;;
3278;SDS011;1651;50.940;6.888;2022-11-21T03:39:15;12.80;;;3.00;;
3278;SDS011;1651;50.940;6.888;2022-11-21T03:41:41;6.15;;;2.97;;
3278;SDS011;1651;50.940;6.888;2022-11-21T03:44:08;5.37;;;2.77;;
3278;SDS011;1651;50.940;6.888;2022-11-21T03:46:44;7.85;;;2.22;;
3278;SDS011;1651;50.940;6.888;2022-11-21T03:49:10;7.03;;;3.50;;
3278;SDS011;1651;50.940;6.888;2022-11-21T03:51:36;4.55;;;2.20;;
3278;SDS011;1651;50.940;6.888;2022-11-21T03:54:02;3.88;;;2.50;;
3278;SDS011;1651;50.940;6.888;2022-11-21T03:56:29;11.68;;;3.03;;
3278;SDS011;1651;50.940;6.888;2022-11-21T03:58:55;8.07;;;3.17;;
3278;SDS011;1651;50.940;6.888;2022-11-21T04:01:21;10.57;;;3.33;;
3278;SDS011;1651;50.940;6.888;2022-11-21T04:03:47;8.57;;;3.88;;
3278;SDS011;1651;50.940;6.888;2022-11-21T04:06:14;6.30;;;3.53;;
3278;SDS011;1651;50.940;6.888;2022-11-21T04:08:41;6.43;;;3.25;;
3278;SDS011;1651;50.940;6.888;2022-11-21T04:11:07;6.90;;;3.40;;
3278;SDS011;1651;50.940;6.888;2022-11-21T04:13:33;6.20;;;3.20;;
3278;SDS011;1651;50.940;6.888;2022-11-21T04:15:59;10.77;;;3.78;;
3278;SDS011;1651;50.940;6.888;2022-11-21T04:18:25;9.73;;;3.73;;
3278;SDS011;1651;50.940;6.888;2022-11-21T04:20:56;4.93;;;2.80;;
3278;SDS011;1651;50.940;6.888;2022-11-21T04:23:22;8.93;;;3.75;;
3278;SDS011;1651;50.940;6.888;2022-11-21T04:25:48;7.40;;;3.60;;
3278;SDS011;1651;50.940;6.888;2022-11-21T04:28:14;10.07;;;3.83;;
3278;SDS011;1651;50.940;6.888;2022-11-21T04:30:40;8.87;;;4.33;;
3278;SDS011;1651;50.940;6.888;2022-11-21T04:33:07;12.13;;;4.57;;
3278;SDS011;1651;50.940;6.888;2022-11-21T04:35:33;7.63;;;4.25;;
3278;SDS011;1651;50.940;6.888;2022-11-21T04:37:59;6.53;;;4.37;;
3278;SDS011;1651;50.940;6.888;2022-11-21T04:40:25;9.18;;;4.20;;
3278;SDS011;1651;50.940;6.888;2022-11-21T04:42:52;9.10;;;4.40;;
3278;SDS011;1651;50.940;6.888;2022-11-21T04:45:18;9.32;;;4.47;;
3278;SDS011;1651;50.940;6.888;2022-11-21T04:47:44;8.60;;;5.13;;
3278;SDS011;1651;50.940;6.888;2022-11-21T04:50:11;7.63;;;4.88;;
3278;SDS011;1651;50.940;6.888;2022-11-21T04:52:40;11.73;;;5.45;;
3278;SDS011;1651;50.940;6.888;2022-11-21T04:55:06;10.98;;;4.65;;
3278;SDS011;1651;50.940;6.888;2022-11-21T04:57:32;10.98;;;5.25;;
3278;SDS011;1651;50.940;6.888;2022-11-21T04:59:59;11.38;;;6.47;;
3278;SDS011;1651;50.940;6.888;2022-11-21T05:02:25;6.93;;;4.50;;
3278;SDS011;1651;50.940;6.888;2022-11-21T05:04:51;8.10;;;4.97;;
3278;SDS011;1651;50.940;6.888;2022-11-21T05:07:17;16.10;;;6.65;;
3278;SDS011;1651;50.940;6.888;2022-11-21T05:09:43;12.82;;;5.90;;
3278;SDS011;1651;50.940;6.888;2022-11-21T05:12:09;15.90;;;5.18;;
3278;SDS011;1651;50.940;6.888;2022-11-21T05:14:54;9.00;;;5.70;;
3278;SDS011;1651;50.940;6.888;2022-11-21T05:17:20;10.18;;;6.30;;
3278;SDS011;1651;50.940;6.888;2022-11-21T05:19:46;11.00;;;6.07;;
3278;SDS011;1651;50.940;6.888;2022-11-21T05:22:13;6.40;;;5.10;;
3278;SDS011;1651;50.940;6.888;2022-11-21T05:24:39;10.00;;;5.20;;
3278;SDS011;1651;50.940;6.888;2022-11-21T05:27:06;10.10;;;6.10;;
3278;SDS011;1651;50.940;6.888;2022-11-21T05:29:32;9.20;;;5.80;;
3278;SDS011;1651;50.940;6.888;2022-11-21T05:31:58;6.93;;;5.97;;
3278;SDS011;1651;50.940;6.888;2022-11-21T05:34:24;11.30;;;6.30;;
3278;SDS011;1651;50.940;6.888;2022-11-21T05:36:53;16.10;;;7.30;;
3278;SDS011;1651;50.940;6.888;2022-11-21T05:39:21;9.70;;;7.13;;
3278;SDS011;1651;50.940;6.888;2022-11-21T05:41:47;10.15;;;7.53;;
3278;SDS011;1651;50.940;6.888;2022-11-21T05:44:13;14.65;;;7.57;;
3278;SDS011;1651;50.940;6.888;2022-11-21T05:46:39;10.32;;;8.00;;
3278;SDS011;1651;50.940;6.888;2022-11-21T05:49:05;11.35;;;8.00;;
3278;SDS011;1651;50.940;6.888;2022-11-21T05:51:32;10.88;;;8.23;;
3278;SDS011;1651;50.940;6.888;2022-11-21T05:53:58;8.98;;;6.85;;
3278;SDS011;1651;50.940;6.888;2022-11-21T05:56:24;13.20;;;7.95;;
3278;SDS011;1651;50.940;6.888;2022-11-21T05:58:53;9.80;;;7.55;;
3278;SDS011;1651;50.940;6.888;2022-11-21T06:01:20;11.25;;;6.90;;
3278;SDS011;1651;50.940;6.888;2022-11-21T06:04:08;8.55;;;6.63;;
3278;SDS011;1651;50.940;6.888;2022-11-21T06:06:35;21.00;;;7.88;;
3278;SDS011;1651;50.940;6.888;2022-11-21T06:09:08;14.43;;;7.82;;
3278;SDS011;1651;50.940;6.888;2022-11-21T06:11:34;10.00;;;6.75;;
3278;SDS011;1651;50.940;6.888;2022-11-21T06:14:01;15.13;;;7.80;;
3278;SDS011;1651;50.940;6.888;2022-11-21T06:16:28;10.07;;;7.77;;
3278;SDS011;1651;50.940;6.888;2022-11-21T06:18:54;14.23;;;8.38;;
3278;SDS011;1651;50.940;6.888;2022-11-21T06:21:23;8.68;;;7.50;;
3278;SDS011;1651;50.940;6.888;2022-11-21T06:23:50;13.10;;;8.68;;
3278;SDS011;1651;50.940;6.888;2022-11-21T06:26:18;14.77;;;8.48;;
3278;SDS011;1651;50.940;6.888;2022-11-21T06:28:44;12.05;;;8.40;;
3278;SDS011;1651;50.940;6.888;2022-11-21T06:31:24;15.40;;;8.25;;
3278;SDS011;1651;50.940;6.888;2022-11-21T06:33:51;15.38;;;7.50;;
3278;SDS011;1651;50.940;6.888;2022-11-21T06:36:17;9.35;;;8.32;;
3278;SDS011;1651;50.940;6.888;2022-11-21T06:38:44;11.55;;;8.00;;
3278;SDS011;1651;50.940;6.888;2022-11-21T06:41:14;12.38;;;7.15;;
3278;SDS011;1651;50.940;6.888;2022-11-21T06:43:40;18.45;;;8.25;;
3278;SDS011;1651;50.940;6.888;2022-11-21T06:46:06;12.88;;;7.35;;
3278;SDS011;1651;50.940;6.888;2022-11-21T06:48:33;12.18;;;7.60;;
3278;SDS011;1651;50.940;6.888;2022-11-21T06:51:03;9.18;;;6.50;;
3278;SDS011;1651;50.940;6.888;2022-11-21T06:53:29;10.90;;;7.38;;
3278;SDS011;1651;50.940;6.888;2022-11-21T06:55:57;9.40;;;7.03;;
3278;SDS011;1651;50.940;6.888;2022-11-21T06:58:23;10.40;;;6.60;;
3278;SDS011;1651;50.940;6.888;2022-11-21T07:00:49;10.82;;;6.38;;
3278;SDS011;1651;50.940;6.888;2022-11-21T07:03:15;8.27;;;5.97;;
3278;SDS011;1651;50.940;6.888;2022-11-21T07:05:42;11.10;;;6.25;;
3278;SDS011;1651;50.940;6.888;2022-11-21T07:08:08;10.65;;;6.38;;
3278;SDS011;1651;50.940;6.888;2022-11-21T07:10:36;8.77;;;6.20;;
3278;SDS011;1651;50.940;6.888;2022-11-21T07:13:02;9.50;;;5.93;;
3278;SDS011;1651;50.940;6.888;2022-11-21T07:15:48;8.73;;;5.80;;
3278;SDS011;1651;50.940;6.888;2022-11-21T07:18:15;15.90;;;7.82;;
3278;SDS011;1651;50.940;6.888;2022-11-21T07:20:41;10.00;;;6.65;;
3278;SDS011;1651;50.940;6.888;2022-11-21T07:23:07;9.07;;;6.10;;
3278;SDS011;1651;50.940;6.888;2022-11-21T07:25:33;13.95;;;6.00;;
3278;SDS011;1651;50.940;6.888;2022-11-21T07:28:00;9.18;;;5.88;;
3278;SDS011;1651;50.940;6.888;2022-11-21T07:30:27;9.15;;;5.50;;
3278;SDS011;1651;50.940;6.888;2022-11-21T07:33:02;8.93;;;6.13;;
3278;SDS011;1651;50.940;6.888;2022-11-21T07:35:34;7.90;;;6.95;;
3278;SDS011;1651;50.940;6.888;2022-11-21T07:38:01;6.88;;;4.65;;
3278;SDS011;1651;50.940;6.888;2022-11-21T07:40:28;8.05;;;5.60;;
3278;SDS011;1651;50.940;6.888;2022-11-21T07:42:59;11.93;;;5.40;;
3278;SDS011;1651;50.940;6.888;2022-11-21T07:45:25;8.10;;;6.05;;
3278;SDS011;1651;50.940;6.888;2022-11-21T07:48:01;8.05;;;5.88;;
3278;SDS011;1651;50.940;6.888;2022-11-21T07:50:28;8.30;;;5.20;;
3278;SDS011;1651;50.940;6.888;2022-11-21T07:52:58;10.93;;;5.65;;
3278;SDS011;1651;50.940;6.888;2022-11-21T07:55:24;8.05;;;6.28;;
3278;SDS011;1651;50.940;6.888;2022-11-21T07:58:01;14.00;;;7.50;;
3278;SDS011;1651;50.940;6.888;2022-11-21T08:00:28;11.00;;;6.80;;
3278;SDS011;1651;50.940;6.888;2022-11-21T08:02:54;7.50;;;6.60;;
3278;SDS011;1651;50.940;6.888;2022-11-21T08:05:22;7.50;;;5.20;;
3278;SDS011;1651;50.940;6.888;2022-11-21T08:10:23;12.30;;;5.63;;
3278;SDS011;1651;50.940;6.888;2022-11-21T08:12:50;10.13;;;5.68;;
3278;SDS011;1651;50.940;6.888;2022-11-21T08:15:19;9.60;;;5.95;;
3278;SDS011;1651;50.940;6.888;2022-11-21T08:17:45;13.00;;;5.40;;
3278;SDS011;1651;50.940;6.888;2022-11-21T08:20:12;10.75;;;8.00;;
3278;SDS011;1651;50.940;6.888;2022-11-21T08:22:42;7.82;;;5.85;;
3278;SDS011;1651;50.940;6.888;2022-11-21T08:25:10;9.63;;;5.75;;
3278;SDS011;1651;50.940;6.888;2022-11-21T08:27:38;9.45;;;5.28;;
3278;SDS011;1651;50.940;6.888;2022-11-21T08:30:15;8.82;;;5.47;;
3278;SDS011;1651;50.940;6.888;2022-11-21T08:32:41;5.93;;;5.30;;
3278;SDS011;1651;50.940;6.888;2022-11-21T08:35:07;9.10;;;5.50;;
3278;SDS011;1651;50.940;6.888;2022-11-21T08:37:34;9.00;;;5.88;;
3278;SDS011;1651;50.940;6.888;2022-11-21T08:40:00;5.88;;;5.38;;
3278;SDS011;1651;50.940;6.888;2022-11-21T08:42:26;7.85;;;5.72;;
3278;SDS011;1651;50.940;6.888;2022-11-21T08:44:54;8.82;;;6.10;;
3278;SDS011;1651;50.940;6.888;2022-11-21T08:47:21;7.50;;;6.38;;
3278;SDS011;1651;50.940;6.888;2022-11-21T08:49:49;14.18;;;6.53;;
3278;SDS011;1651;50.940;6.888;2022-11-21T08:52:15;7.60;;;6.47;;
3278;SDS011;1651;50.940;6.888;2022-11-21T08:57:11;9.52;;;7.15;;
3278;SDS011;1651;50.940;6.888;2022-11-21T08:59:37;10.48;;;6.68;;
3278;SDS011;1651;50.940;6.888;2022-11-21T09:02:03;9.00;;;6.67;;
3278;SDS011;1651;50.940;6.888;2022-11-21T09:04:30;9.57;;;8.15;;
3278;SDS011;1651;50.940;6.888;2022-11-21T09:06:57;14.85;;;8.32;;
3278;SDS011;1651;50.940;6.888;2022-11-21T09:09:25;9.82;;;7.72;;
3278;SDS011;1651;50.940;6.888;2022-11-21T09:11:51;8.50;;;7.32;;
3278;SDS011;1651;50.940;6.888;2022-11-21T09:14:18;11.00;;;7.63;;
3278;SDS011;1651;50.940;6.888;2022-11-21T09:17:15;8.75;;;7.63;;
3278;SDS011;1651;50.940;6.888;2022-11-21T09:20:03;11.25;;;8.40;;
3278;SDS011;1651;50.940;6.888;2022-11-21T09:22:36;15.15;;;8.90;;
3278;SDS011;1651;50.940;6.888;2022-11-21T09:25:02;15.38;;;8.40;;
3278;SDS011;1651;50.940;6.888;2022-11-21T09:27:31;15.73;;;8.13;;
3278;SDS011;1651;50.940;6.888;2022-11-21T09:29:57;12.00;;;8.63;;
3278;SDS011;1651;50.940;6.888;2022-11-21T09:32:23;8.40;;;7.37;;
3278;SDS011;1651;50.940;6.888;2022-11-21T09:34:49;7.63;;;6.60;;
3278;SDS011;1651;50.940;6.888;2022-11-21T09:39:46;7.35;;;5.50;;
3278;SDS011;1651;50.940;6.888;2022-11-21T09:42:25;8.03;;;5.50;;
3278;SDS011;1651;50.940;6.888;2022-11-21T09:47:36;6.23;;;4.90;;
3278;SDS011;1651;50.940;6.888;2022-11-21T09:55:42;4.77;;;4.17;;
3278;SDS011;1651;50.940;6.888;2022-11-21T09:58:23;5.67;;;3.63;;
3278;SDS011;1651;50.940;6.888;2022-11-21T10:00:52;5.33;;;3.97;;
3278;SDS011;1651;50.940;6.888;2022-11-21T10:06:16;9.77;;;3.70;;
3278;SDS011;1651;50.940;6.888;2022-11-21T10:20:13;3.30;;;2.27;;
3278;SDS011;1651;50.940;6.888;2022-11-21T10:25:27;6.40;;;3.60;;
3278;SDS011;1651;50.940;6.888;2022-11-21T10:28:00;4.50;;;2.70;;
3278;SDS011;1651;50.940;6.888;2022-11-21T10:30:28;3.60;;;2.60;;
3278;SDS011;1651;50.940;6.888;2022-11-21T10:32:59;5.37;;;2.70;;
3278;SDS011;1651;50.940;6.888;2022-11-21T10:35:40;9.17;;;3.70;;
3278;SDS011;1651;50.940;6.888;2022-11-21T10:38:23;7.13;;;2.73;;
3278;SDS011;1651;50.940;6.888;2022-11-21T10:46:22;4.83;;;2.97;;
3278;SDS011;1651;50.940;6.888;2022-11-21T10:49:09;3.13;;;2.27;;
3278;SDS011;1651;50.940;6.888;2022-11-21T10:51:56;3.80;;;2.70;;
3278;SDS011;1651;50.940;6.888;2022-11-21T10:54:25;5.80;;;2.67;;
3278;SDS011;1651;50.940;6.888;2022-11-21T10:57:16;3.70;;;1.60;;
3278;SDS011;1651;50.940;6.888;2022-11-21T11:00:12;2.90;;;2.17;;
3278;SDS011;1651;50.940;6.888;2022-11-21T11:02:39;3.23;;;1.93;;
3278;SDS011;1651;50.940;6.888;2022-11-21T11:07:42;4.87;;;2.10;;
3278;SDS011;1651;50.940;6.888;2022-11-21T11:10:23;5.07;;;2.37;;
3278;SDS011;1651;50.940;6.888;2022-11-21T11:12:49;4.07;;;2.10;;
3278;SDS011;1651;50.940;6.888;2022-11-21T11:15:36;3.20;;;1.80;;
3278;SDS011;1651;50.940;6.888;2022-11-21T11:18:04;5.80;;;1.70;;
3278;SDS011;1651;50.940;6.888;2022-11-21T11:23:13;2.10;;;1.67;;
3278;SDS011;1651;50.940;6.888;2022-11-21T11:25:46;3.73;;;1.70;;
3278;SDS011;1651;50.940;6.888;2022-11-21T11:28:13;1.97;;;1.33;;
3278;SDS011;1651;50.940;6.888;2022-11-21T11:30:39;3.90;;;1.37;;
3278;SDS011;1651;50.940;6.888;2022-11-21T11:35:52;2.87;;;1.57;;
3278;SDS011;1651;50.940;6.888;2022-11-21T11:38:24;4.33;;;1.80;;
3278;SDS011;1651;50.940;6.888;2022-11-21T11:40:51;3.73;;;1.93;;
3278;SDS011;1651;50.940;6.888;2022-11-21T11:46:27;3.90;;;1.47;;
3278;SDS011;1651;50.940;6.888;2022-11-21T11:49:13;4.27;;;1.57;;
3278;SDS011;1651;50.940;6.888;2022-11-21T11:51:41;6.33;;;1.70;;
3278;SDS011;1651;50.940;6.888;2022-11-21T11:54:25;9.57;;;1.67;;
3278;SDS011;1651;50.940;6.888;2022-11-21T11:56:51;3.27;;;1.57;;
3278;SDS011;1651;50.940;6.888;2022-11-21T11:59:38;3.20;;;1.47;;
3278;SDS011;1651;50.940;6.888;2022-11-21T12:02:17;4.43;;;1.87;;
3278;SDS011;1651;50.940;6.888;2022-11-21T12:05:09;2.43;;;1.40;;
3278;SDS011;1651;50.940;6.888;2022-11-21T12:07:37;3.70;;;1.97;;
3278;SDS011;1651;50.940;6.888;2022-11-21T12:12:39;2.73;;;1.13;;
3278;SDS011;1651;50.940;6.888;2022-11-21T12:31:18;2.60;;;1.40;;
3278;SDS011;1651;50.940;6.888;2022-11-21T12:33:53;3.73;;;1.33;;
3278;SDS011;1651;50.940;6.888;2022-11-21T12:37:23;7.30;;;1.60;;
3278;SDS011;1651;50.940;6.888;2022-11-21T12:41:55;4.60;;;2.50;;
3278;SDS011;1651;50.940;6.888;2022-11-21T12:50:19;3.50;;;1.63;;
3278;SDS011;1651;50.940;6.888;2022-11-21T12:53:11;3.37;;;1.90;;
3278;SDS011;1651;50.940;6.888;2022-11-21T12:56:03;2.47;;;1.20;;
3278;SDS011;1651;50.940;6.888;2022-11-21T12:58:35;1.37;;;1.10;;
3278;SDS011;1651;50.940;6.888;2022-11-21T13:06:13;2.17;;;1.10;;
3278;SDS011;1651;50.940;6.888;2022-11-21T13:08:40;3.67;;;1.20;;
3278;SDS011;1651;50.940;6.888;2022-11-21T13:11:12;8.73;;;3.10;;
3278;SDS011;1651;50.940;6.888;2022-11-21T13:14:06;1.47;;;1.00;;
3278;SDS011;1651;50.940;6.888;2022-11-21T13:16:36;3.83;;;1.30;;
3278;SDS011;1651;50.940;6.888;2022-11-21T13:21:41;3.07;;;1.30;;
3278;SDS011;1651;50.940;6.888;2022-11-21T13:24:08;4.67;;;2.30;;
3278;SDS011;1651;50.940;6.888;2022-11-21T13:29:06;7.07;;;1.60;;
3278;SDS011;1651;50.940;6.888;2022-11-21T13:31:35;3.00;;;2.00;;
3278;SDS011;1651;50.940;6.888;2022-11-21T13:34:03;3.33;;;1.80;;
3278;SDS011;1651;50.940;6.888;2022-11-21T13:46:56;5.50;;;1.70;;
3278;SDS011;1651;50.940;6.888;2022-11-21T14:08:40;3.40;;;1.57;;
3278;SDS011;1651;50.940;6.888;2022-11-21T14:10:51;2.00;;;1.20;;
3278;SDS011;1651;50.940;6.888;2022-11-21T14:13:25;3.90;;;1.60;;
3278;SDS011;1651;50.940;6.888;2022-11-21T14:18:34;4.73;;;1.30;;
3278;SDS011;1651;50.940;6.888;2022-11-21T14:21:01;1.80;;;1.10;;
3278;SDS011;1651;50.940;6.888;2022-11-21T14:23:29;1.87;;;1.47;;
3278;SDS011;1651;50.940;6.888;2022-11-21T14:26:09;3.35;;;1.83;;
3278;SDS011;1651;50.940;6.888;2022-11-21T14:28:40;6.32;;;1.63;;
3278;SDS011;1651;50.940;6.888;2022-11-21T14:31:10;3.72;;;1.80;;
3278;SDS011;1651;50.940;6.888;2022-11-21T14:33:42;2.75;;;1.70;;
3278;SDS011;1651;50.940;6.888;2022-11-21T14:36:10;1.30;;;1.17;;
3278;SDS011;1651;50.940;6.888;2022-11-21T14:38:43;3.72;;;1.95;;
3278;SDS011;1651;50.940;6.888;2022-11-21T14:41:27;5.78;;;2.05;;
3278;SDS011;1651;50.940;6.888;2022-11-21T14:44:17;3.08;;;2.47;;
3278;SDS011;1651;50.940;6.888;2022-11-21T14:46:43;2.35;;;1.50;;
3278;SDS011;1651;50.940;6.888;2022-11-21T14:54:22;1.38;;;1.13;;
3278;SDS011;1651;50.940;6.888;2022-11-21T14:57:02;2.92;;;1.60;;
3278;SDS011;1651;50.940;6.888;2022-11-21T14:59:31;3.72;;;1.50;;
3278;SDS011;1651;50.940;6.888;2022-11-21T15:02:00;35.88;;;17.05;;
3278;SDS011;1651;50.940;6.888;2022-11-21T15:04:31;7.03;;;1.90;;
3278;SDS011;1651;50.940;6.888;2022-11-21T15:07:00;1.85;;;1.20;;
3278;SDS011;1651;50.940;6.888;2022-11-21T15:09:26;3.50;;;1.60;;
3278;SDS011;1651;50.940;6.888;2022-11-21T15:12:03;3.17;;;1.30;;
3278;SDS011;1651;50.940;6.888;2022-11-21T15:17:19;4.03;;;3.28;;
3278;SDS011;1651;50.940;6.888;2022-11-21T15:19:50;2.33;;;1.90;;
3278;SDS011;1651;50.940;6.888;2022-11-21T15:22:32;4.50;;;2.35;;
3278;SDS011;1651;50.940;6.888;2022-11-21T15:30:30;3.28;;;2.08;;
3278;SDS011;1651;50.940;6.888;2022-11-21T15:38:00;4.77;;;2.10;;
3278;SDS011;1651;50.940;6.888;2022-11-21T15:40:30;6.50;;;1.93;;
3278;SDS011;1651;50.940;6.888;2022-11-21T15:42:56;5.68;;;2.47;;
3278;SDS011;1651;50.940;6.888;2022-11-21T15:45:28;5.40;;;1.88;;
3278;SDS011;1651;50.940;6.888;2022-11-21T15:47:56;3.65;;;2.35;;
3278;SDS011;1651;50.940;6.888;2022-11-21T15:50:22;3.72;;;1.70;;
3278;SDS011;1651;50.940;6.888;2022-11-21T15:52:49;7.35;;;2.50;;
3278;SDS011;1651;50.940;6.888;2022-11-21T15:55:17;2.92;;;2.05;;
3278;SDS011;1651;50.940;6.888;2022-11-21T15:57:44;2.50;;;1.63;;
3278;SDS011;1651;50.940;6.888;2022-11-21T16:00:11;1.10;;;0.93;;
3278;SDS011;1651;50.940;6.888;2022-11-21T16:02:38;3.83;;;2.42;;
3278;SDS011;1651;50.940;6.888;2022-11-21T16:05:04;4.28;;;1.70;;
3278;SDS011;1651;50.940;6.888;2022-11-21T16:07:30;3.80;;;1.88;;
3278;SDS011;1651;50.940;6.888;2022-11-21T16:09:56;3.40;;;2.00;;
3278;SDS011;1651;50.940;6.888;2022-11-21T16:12:22;3.13;;;1.87;;
3278;SDS011;1651;50.940;6.888;2022-11-21T16:14:50;3.43;;;2.30;;
3278;SDS011;1651;50.940;6.888;2022-11-21T16:17:16;2.45;;;1.60;;
3278;SDS011;1651;50.940;6.888;2022-11-21T16:19:42;2.75;;;2.22;;
3278;SDS011;1651;50.940;6.888;2022-11-21T16:22:10;5.10;;;2.95;;
3278;SDS011;1651;50.940;6.888;2022-11-21T16:24:38;3.90;;;1.75;;
3278;SDS011;1651;50.940;6.888;2022-11-21T16:27:04;4.65;;;1.92;;
3278;SDS011;1651;50.940;6.888;2022-11-21T16:29:30;3.23;;;2.27;;
3278;SDS011;1651;50.940;6.888;2022-11-21T16:31:57;4.40;;;2.23;;
3278;SDS011;1651;50.940;6.888;2022-11-21T16:34:24;4.72;;;2.00;;
3278;SDS011;1651;50.940;6.888;2022-11-21T16:36:55;4.82;;;2.35;;
3278;SDS011;1651;50.940;6.888;2022-11-21T16:39:21;5.97;;;2.03;;
3278;SDS011;1651;50.940;6.888;2022-11-21T16:41:48;4.70;;;2.33;;
3278;SDS011;1651;50.940;6.888;2022-11-21T16:44:14;3.17;;;2.38;;
3278;SDS011;1651;50.940;6.888;2022-11-21T16:46:41;11.60;;;3.08;;
3278;SDS011;1651;50.940;6.888;2022-11-21T16:49:08;3.35;;;1.75;;
3278;SDS011;1651;50.940;6.888;2022-11-21T16:51:34;1.45;;;1.15;;
3278;SDS011;1651;50.940;6.888;2022-11-21T16:54:03;2.80;;;1.50;;
3278;SDS011;1651;50.940;6.888;2022-11-21T16:56:29;10.68;;;2.50;;
3278;SDS011;1651;50.940;6.888;2022-11-21T16:58:55;6.47;;;3.63;;
3278;SDS011;1651;50.940;6.888;2022-11-21T17:01:22;5.13;;;2.23;;
3278;SDS011;1651;50.940;6.888;2022-11-21T17:03:49;3.72;;;2.47;;
3278;SDS011;1651;50.940;6.888;2022-11-21T17:06:17;4.47;;;1.80;;
3278;SDS011;1651;50.940;6.888;2022-11-21T17:08:45;3.25;;;2.20;;
3278;SDS011;1651;50.940;6.888;2022-11-21T17:11:18;7.05;;;1.85;;
3278;SDS011;1651;50.940;6.888;2022-11-21T17:13:46;5.07;;;2.88;;
3278;SDS011;1651;50.940;6.888;2022-11-21T17:16:14;4.70;;;2.60;;
3278;SDS011;1651;50.940;6.888;2022-11-21T17:18:40;4.40;;;2.38;;
3278;SDS011;1651;50.940;6.888;2022-11-21T17:21:07;6.20;;;2.70;;
3278;SDS011;1651;50.940;6.888;2022-11-21T17:23:34;5.78;;;2.15;;
3278;SDS011;1651;50.940;6.888;2022-11-21T17:26:04;6.75;;;2.67;;
3278;SDS011;1651;50.940;6.888;2022-11-21T17:28:31;8.35;;;3.00;;
3278;SDS011;1651;50.940;6.888;2022-11-21T17:30:58;7.65;;;2.30;;
3278;SDS011;1651;50.940;6.888;2022-11-21T17:33:25;5.65;;;2.75;;
3278;SDS011;1651;50.940;6.888;2022-11-21T17:35:51;2.17;;;1.60;;
3278;SDS011;1651;50.940;6.888;2022-11-21T17:38:18;4.03;;;2.40;;
3278;SDS011;1651;50.940;6.888;2022-11-21T17:40:44;5.53;;;2.30;;
3278;SDS011;1651;50.940;6.888;2022-11-21T17:43:10;6.23;;;2.93;;
3278;SDS011;1651;50.940;6.888;2022-11-21T17:45:36;2.87;;;1.90;;
3278;SDS011;1651;50.940;6.888;2022-11-21T17:48:03;5.22;;;2.15;;